sensor_id;sensor_type;location;lat;lon;timestamp;P1;durP1;ratioP1;P2;durP2;ratioP2
77738;SDS011;66904;59.926;30.404;2023-06-10T00:01:02;0.30;;;0.13;;
77738;SDS011;66904;59.926;30.404;2023-06-10T00:06:03;0.73;;;0.20;;
77738;SDS011;66904;59.926;30.404;2023-06-10T00:11:05;0.20;;;0.10;;
77738;SDS011;66904;59.926;30.404;2023-06-10T00:16:05;0.38;;;0.13;;
77738;SDS011;66904;59.926;30.404;2023-06-10T00:21:06;0.80;;;0.30;;
77738;SDS011;66904;59.926;30.404;2023-06-10T00:26:06;0.22;;;0.05;;
77738;SDS011;66904;59.926;30.404;2023-06-10T00:31:07;0.40;;;0.20;;
77738;SDS011;66904;59.926;30.404;2023-06-10T00:36:08;0.65;;;0.15;;
77738;SDS011;66904;59.926;30.404;2023-06-10T00:41:08;0.55;;;0.28;;
77738;SDS011;66904;59.926;30.404;2023-06-10T00:46:09;0.70;;;0.25;;
77738;SDS011;66904;59.926;30.404;2023-06-10T00:51:11;1.70;;;0.20;;
77738;SDS011;66904;59.926;30.404;2023-06-10T00:56:12;0.32;;;0.10;;
77738;SDS011;66904;59.926;30.404;2023-06-10T01:01:13;0.28;;;0.10;;
77738;SDS011;66904;59.926;30.404;2023-06-10T01:06:18;0.22;;;0.10;;
77738;SDS011;66904;59.926;30.404;2023-06-10T01:11:50;0.50;;;0.10;;
77738;SDS011;66904;59.926;30.404;2023-06-10T01:17:15;0.35;;;0.20;;
77738;SDS011;66904;59.926;30.404;2023-06-10T01:22:16;0.17;;;0.10;;
77738;SDS011;66904;59.926;30.404;2023-06-10T01:27:17;0.43;;;0.20;;
77738;SDS011;66904;59.926;30.404;2023-06-10T01:32:26;0.25;;;0.17;;
77738;SDS011;66904;59.926;30.404;2023-06-10T01:37:32;0.32;;;0.15;;
77738;SDS011;66904;59.926;30.404;2023-06-10T01:42:33;0.43;;;0.20;;
77738;SDS011;66904;59.926;30.404;2023-06-10T01:47:34;0.25;;;0.15;;
77738;SDS011;66904;59.926;30.404;2023-06-10T01:52:35;0.43;;;0.20;;
77738;SDS011;66904;59.926;30.404;2023-06-10T01:57:35;0.30;;;0.20;;
77738;SDS011;66904;59.926;30.404;2023-06-10T02:02:36;0.10;;;0.08;;
77738;SDS011;66904;59.926;30.404;2023-06-10T02:07:36;0.55;;;0.10;;
77738;SDS011;66904;59.926;30.404;2023-06-10T02:12:38;0.00;;;0.00;;
77738;SDS011;66904;59.926;30.404;2023-06-10T02:17:38;0.40;;;0.10;;
77738;SDS011;66904;59.926;30.404;2023-06-10T02:22:39;0.13;;;0.10;;
77738;SDS011;66904;59.926;30.404;2023-06-10T02:27:40;0.52;;;0.30;;
77738;SDS011;66904;59.926;30.404;2023-06-10T02:32:40;0.28;;;0.13;;
77738;SDS011;66904;59.926;30.404;2023-06-10T02:37:41;0.60;;;0.30;;
77738;SDS011;66904;59.926;30.404;2023-06-10T02:42:42;0.52;;;0.30;;
77738;SDS011;66904;59.926;30.404;2023-06-10T02:47:42;0.15;;;0.10;;
77738;SDS011;66904;59.926;30.404;2023-06-10T02:52:43;0.52;;;0.13;;
77738;SDS011;66904;59.926;30.404;2023-06-10T02:57:43;0.47;;;0.20;;
77738;SDS011;66904;59.926;30.404;2023-06-10T03:02:44;0.45;;;0.15;;
77738;SDS011;66904;59.926;30.404;2023-06-10T03:07:45;0.40;;;0.15;;
77738;SDS011;66904;59.926;30.404;2023-06-10T03:12:47;0.30;;;0.10;;
77738;SDS011;66904;59.926;30.404;2023-06-10T03:17:47;0.40;;;0.20;;
77738;SDS011;66904;59.926;30.404;2023-06-10T03:22:50;0.10;;;0.10;;
77738;SDS011;66904;59.926;30.404;2023-06-10T03:27:51;0.38;;;0.17;;
77738;SDS011;66904;59.926;30.404;2023-06-10T03:32:52;0.13;;;0.00;;
77738;SDS011;66904;59.926;30.404;2023-06-10T03:37:52;0.20;;;0.10;;
77738;SDS011;66904;59.926;30.404;2023-06-10T03:42:53;0.30;;;0.10;;
77738;SDS011;66904;59.926;30.404;2023-06-10T03:47:53;0.30;;;0.10;;
77738;SDS011;66904;59.926;30.404;2023-06-10T03:52:54;0.38;;;0.20;;
77738;SDS011;66904;59.926;30.404;2023-06-10T03:57:55;0.10;;;0.00;;
77738;SDS011;66904;59.926;30.404;2023-06-10T04:02:55;0.40;;;0.13;;
77738;SDS011;66904;59.926;30.404;2023-06-10T04:07:58;0.57;;;0.20;;
77738;SDS011;66904;59.926;30.404;2023-06-10T04:12:59;0.35;;;0.17;;
77738;SDS011;66904;59.926;30.404;2023-06-10T04:17:59;0.00;;;0.00;;
77738;SDS011;66904;59.926;30.404;2023-06-10T04:23:01;0.40;;;0.10;;
77738;SDS011;66904;59.926;30.404;2023-06-10T04:28:01;0.15;;;0.10;;
77738;SDS011;66904;59.926;30.404;2023-06-10T04:33:02;0.13;;;0.08;;
77738;SDS011;66904;59.926;30.404;2023-06-10T04:38:02;0.20;;;0.03;;
77738;SDS011;66904;59.926;30.404;2023-06-10T04:43:03;0.28;;;0.10;;
77738;SDS011;66904;59.926;30.404;2023-06-10T04:48:04;0.08;;;0.08;;
77738;SDS011;66904;59.926;30.404;2023-06-10T04:53:04;0.30;;;0.10;;
77738;SDS011;66904;59.926;30.404;2023-06-10T04:58:06;0.00;;;0.00;;
77738;SDS011;66904;59.926;30.404;2023-06-10T05:03:06;0.20;;;0.05;;
77738;SDS011;66904;59.926;30.404;2023-06-10T05:08:07;0.20;;;0.10;;
77738;SDS011;66904;59.926;30.404;2023-06-10T05:13:08;0.15;;;0.08;;
77738;SDS011;66904;59.926;30.404;2023-06-10T05:18:08;0.55;;;0.28;;
77738;SDS011;66904;59.926;30.404;2023-06-10T05:23:09;0.00;;;0.00;;
77738;SDS011;66904;59.926;30.404;2023-06-10T05:28:09;0.05;;;0.00;;
77738;SDS011;66904;59.926;30.404;2023-06-10T05:33:11;0.22;;;0.10;;
77738;SDS011;66904;59.926;30.404;2023-06-10T05:38:11;0.10;;;0.00;;
77738;SDS011;66904;59.926;30.404;2023-06-10T05:43:12;0.30;;;0.10;;
77738;SDS011;66904;59.926;30.404;2023-06-10T05:48:12;0.00;;;0.00;;
77738;SDS011;66904;59.926;30.404;2023-06-10T05:53:14;0.10;;;0.00;;
77738;SDS011;66904;59.926;30.404;2023-06-10T05:58:15;0.68;;;0.20;;
77738;SDS011;66904;59.926;30.404;2023-06-10T06:03:17;0.13;;;0.10;;
77738;SDS011;66904;59.926;30.404;2023-06-10T06:08:18;0.20;;;0.03;;
77738;SDS011;66904;59.926;30.404;2023-06-10T06:13:19;0.20;;;0.03;;
77738;SDS011;66904;59.926;30.404;2023-06-10T06:18:19;0.10;;;0.10;;
77738;SDS011;66904;59.926;30.404;2023-06-10T06:23:20;0.10;;;0.00;;
77738;SDS011;66904;59.926;30.404;2023-06-10T06:28:20;0.63;;;0.00;;
77738;SDS011;66904;59.926;30.404;2023-06-10T06:33:22;0.22;;;0.03;;
77738;SDS011;66904;59.926;30.404;2023-06-10T06:38:22;0.30;;;0.20;;
77738;SDS011;66904;59.926;30.404;2023-06-10T06:43:23;0.13;;;0.05;;
77738;SDS011;66904;59.926;30.404;2023-06-10T06:48:23;0.30;;;0.10;;
77738;SDS011;66904;59.926;30.404;2023-06-10T06:53:24;0.10;;;0.03;;
77738;SDS011;66904;59.926;30.404;2023-06-10T06:58:25;0.13;;;0.08;;
77738;SDS011;66904;59.926;30.404;2023-06-10T07:03:26;0.35;;;0.10;;
77738;SDS011;66904;59.926;30.404;2023-06-10T07:08:26;0.00;;;0.00;;
77738;SDS011;66904;59.926;30.404;2023-06-10T07:13:27;0.10;;;0.10;;
77738;SDS011;66904;59.926;30.404;2023-06-10T07:18:27;2.13;;;0.50;;
77738;SDS011;66904;59.926;30.404;2023-06-10T07:23:28;4.28;;;1.50;;
77738;SDS011;66904;59.926;30.404;2023-06-10T07:28:28;12.57;;;2.00;;
77738;SDS011;66904;59.926;30.404;2023-06-10T07:33:29;11.05;;;4.60;;
77738;SDS011;66904;59.926;30.404;2023-06-10T07:38:29;10.48;;;3.10;;
77738;SDS011;66904;59.926;30.404;2023-06-10T07:43:30;9.00;;;2.08;;
77738;SDS011;66904;59.926;30.404;2023-06-10T07:48:30;2.83;;;1.67;;
77738;SDS011;66904;59.926;30.404;2023-06-10T07:53:31;3.90;;;1.25;;
77738;SDS011;66904;59.926;30.404;2023-06-10T07:58:32;3.63;;;1.52;;
77738;SDS011;66904;59.926;30.404;2023-06-10T08:03:32;4.85;;;1.30;;
77738;SDS011;66904;59.926;30.404;2023-06-10T08:08:33;5.32;;;1.17;;
77738;SDS011;66904;59.926;30.404;2023-06-10T08:13:34;3.08;;;0.70;;
77738;SDS011;66904;59.926;30.404;2023-06-10T08:18:35;1.33;;;0.87;;
77738;SDS011;66904;59.926;30.404;2023-06-10T08:23:36;1.98;;;1.15;;
77738;SDS011;66904;59.926;30.404;2023-06-10T08:28:36;1.85;;;0.70;;
77738;SDS011;66904;59.926;30.404;2023-06-10T08:33:37;1.35;;;0.70;;
77738;SDS011;66904;59.926;30.404;2023-06-10T08:38:37;3.97;;;0.57;;
77738;SDS011;66904;59.926;30.404;2023-06-10T08:44:12;0.80;;;0.30;;
77738;SDS011;66904;59.926;30.404;2023-06-10T08:49:10;2.70;;;0.73;;
77738;SDS011;66904;59.926;30.404;2023-06-10T08:54:15;0.95;;;0.40;;
77738;SDS011;66904;59.926;30.404;2023-06-10T08:59:21;1.02;;;0.50;;
77738;SDS011;66904;59.926;30.404;2023-06-10T09:04:22;1.27;;;0.30;;
77738;SDS011;66904;59.926;30.404;2023-06-10T09:09:24;0.70;;;0.25;;
77738;SDS011;66904;59.926;30.404;2023-06-10T09:14:28;0.98;;;0.40;;
77738;SDS011;66904;59.926;30.404;2023-06-10T09:19:29;0.73;;;0.22;;
77738;SDS011;66904;59.926;30.404;2023-06-10T09:24:29;1.58;;;0.50;;
77738;SDS011;66904;59.926;30.404;2023-06-10T09:29:31;0.90;;;0.10;;
77738;SDS011;66904;59.926;30.404;2023-06-10T09:34:45;0.65;;;0.22;;
77738;SDS011;66904;59.926;30.404;2023-06-10T09:40:00;0.45;;;0.03;;
77738;SDS011;66904;59.926;30.404;2023-06-10T09:45:08;1.23;;;0.20;;
77738;SDS011;66904;59.926;30.404;2023-06-10T09:50:09;1.02;;;0.40;;
77738;SDS011;66904;59.926;30.404;2023-06-10T09:55:10;0.60;;;0.10;;
77738;SDS011;66904;59.926;30.404;2023-06-10T10:00:11;0.43;;;0.10;;
77738;SDS011;66904;59.926;30.404;2023-06-10T10:05:13;2.85;;;0.20;;
77738;SDS011;66904;59.926;30.404;2023-06-10T10:10:18;0.40;;;0.15;;
77738;SDS011;66904;59.926;30.404;2023-06-10T10:15:20;0.38;;;0.10;;
77738;SDS011;66904;59.926;30.404;2023-06-10T10:20:33;0.10;;;0.00;;
77738;SDS011;66904;59.926;30.404;2023-06-10T10:25:37;0.17;;;0.10;;
77738;SDS011;66904;59.926;30.404;2023-06-10T10:30:41;0.85;;;0.28;;
77738;SDS011;66904;59.926;30.404;2023-06-10T10:35:45;0.25;;;0.10;;
77738;SDS011;66904;59.926;30.404;2023-06-10T10:40:46;0.47;;;0.10;;
77738;SDS011;66904;59.926;30.404;2023-06-10T10:45:57;0.28;;;0.00;;
77738;SDS011;66904;59.926;30.404;2023-06-10T10:50:59;0.10;;;0.03;;
77738;SDS011;66904;59.926;30.404;2023-06-10T10:56:01;0.10;;;0.10;;
77738;SDS011;66904;59.926;30.404;2023-06-10T11:01:10;0.40;;;0.17;;
77738;SDS011;66904;59.926;30.404;2023-06-10T11:06:12;0.08;;;0.05;;
77738;SDS011;66904;59.926;30.404;2023-06-10T11:11:32;0.50;;;0.32;;
77738;SDS011;66904;59.926;30.404;2023-06-10T11:22:05;0.32;;;0.10;;
77738;SDS011;66904;59.926;30.404;2023-06-10T11:27:18;0.10;;;0.00;;
77738;SDS011;66904;59.926;30.404;2023-06-10T11:32:20;0.47;;;0.10;;
77738;SDS011;66904;59.926;30.404;2023-06-10T11:37:21;0.55;;;0.10;;
77738;SDS011;66904;59.926;30.404;2023-06-10T11:42:22;2.03;;;0.40;;
77738;SDS011;66904;59.926;30.404;2023-06-10T11:47:23;0.15;;;0.03;;
77738;SDS011;66904;59.926;30.404;2023-06-10T11:52:27;0.20;;;0.10;;
77738;SDS011;66904;59.926;30.404;2023-06-10T11:57:28;0.40;;;0.15;;
77738;SDS011;66904;59.926;30.404;2023-06-10T12:02:29;0.22;;;0.10;;
77738;SDS011;66904;59.926;30.404;2023-06-10T12:07:29;0.40;;;0.20;;
77738;SDS011;66904;59.926;30.404;2023-06-10T12:12:30;0.20;;;0.00;;
77738;SDS011;66904;59.926;30.404;2023-06-10T12:22:38;0.30;;;0.10;;
77738;SDS011;66904;59.926;30.404;2023-06-10T12:27:51;0.25;;;0.10;;
77738;SDS011;66904;59.926;30.404;2023-06-10T12:32:53;0.03;;;0.03;;
77738;SDS011;66904;59.926;30.404;2023-06-10T12:37:59;0.38;;;0.20;;
77738;SDS011;66904;59.926;30.404;2023-06-10T12:43:01;0.05;;;0.03;;
77738;SDS011;66904;59.926;30.404;2023-06-10T12:48:12;0.30;;;0.30;;
77738;SDS011;66904;59.926;30.404;2023-06-10T12:53:18;0.80;;;0.20;;
77738;SDS011;66904;59.926;30.404;2023-06-10T12:58:20;0.47;;;0.10;;
77738;SDS011;66904;59.926;30.404;2023-06-10T13:03:21;1.10;;;0.50;;
77738;SDS011;66904;59.926;30.404;2023-06-10T13:08:22;0.43;;;0.22;;
77738;SDS011;66904;59.926;30.404;2023-06-10T13:13:22;0.20;;;0.10;;
77738;SDS011;66904;59.926;30.404;2023-06-10T13:18:23;0.70;;;0.10;;
77738;SDS011;66904;59.926;30.404;2023-06-10T13:23:24;0.60;;;0.20;;
77738;SDS011;66904;59.926;30.404;2023-06-10T13:28:24;0.43;;;0.10;;
77738;SDS011;66904;59.926;30.404;2023-06-10T13:33:25;0.32;;;0.10;;
77738;SDS011;66904;59.926;30.404;2023-06-10T13:38:25;0.30;;;0.10;;
77738;SDS011;66904;59.926;30.404;2023-06-10T13:43:26;0.47;;;0.22;;
77738;SDS011;66904;59.926;30.404;2023-06-10T13:48:26;2.22;;;0.47;;
77738;SDS011;66904;59.926;30.404;2023-06-10T13:53:27;0.38;;;0.20;;
77738;SDS011;66904;59.926;30.404;2023-06-10T13:58:27;1.00;;;0.35;;
77738;SDS011;66904;59.926;30.404;2023-06-10T14:03:28;0.45;;;0.20;;
77738;SDS011;66904;59.926;30.404;2023-06-10T14:08:29;1.00;;;0.10;;
77738;SDS011;66904;59.926;30.404;2023-06-10T14:13:29;0.43;;;0.10;;
77738;SDS011;66904;59.926;30.404;2023-06-10T14:18:30;0.40;;;0.20;;
77738;SDS011;66904;59.926;30.404;2023-06-10T14:23:30;1.02;;;0.30;;
77738;SDS011;66904;59.926;30.404;2023-06-10T14:28:31;0.17;;;0.08;;
77738;SDS011;66904;59.926;30.404;2023-06-10T14:33:31;0.10;;;0.10;;
77738;SDS011;66904;59.926;30.404;2023-06-10T14:38:32;0.70;;;0.13;;
77738;SDS011;66904;59.926;30.404;2023-06-10T14:43:32;0.43;;;0.13;;
77738;SDS011;66904;59.926;30.404;2023-06-10T14:48:33;0.88;;;0.35;;
77738;SDS011;66904;59.926;30.404;2023-06-10T14:53:34;0.73;;;0.17;;
77738;SDS011;66904;59.926;30.404;2023-06-10T14:58:34;0.73;;;0.20;;
77738;SDS011;66904;59.926;30.404;2023-06-10T15:03:35;0.82;;;0.35;;
77738;SDS011;66904;59.926;30.404;2023-06-10T15:08:35;1.77;;;0.30;;
77738;SDS011;66904;59.926;30.404;2023-06-10T15:13:36;0.52;;;0.50;;
77738;SDS011;66904;59.926;30.404;2023-06-10T15:18:37;0.55;;;0.40;;
77738;SDS011;66904;59.926;30.404;2023-06-10T15:23:38;0.45;;;0.17;;
77738;SDS011;66904;59.926;30.404;2023-06-10T15:28:38;0.65;;;0.17;;
77738;SDS011;66904;59.926;30.404;2023-06-10T15:33:39;0.13;;;0.13;;
77738;SDS011;66904;59.926;30.404;2023-06-10T15:38:40;0.57;;;0.17;;
77738;SDS011;66904;59.926;30.404;2023-06-10T15:43:40;0.40;;;0.15;;
77738;SDS011;66904;59.926;30.404;2023-06-10T15:48:41;0.30;;;0.10;;
77738;SDS011;66904;59.926;30.404;2023-06-10T15:53:42;0.35;;;0.10;;
77738;SDS011;66904;59.926;30.404;2023-06-10T15:58:42;0.43;;;0.10;;
77738;SDS011;66904;59.926;30.404;2023-06-10T16:03:43;0.35;;;0.17;;
77738;SDS011;66904;59.926;30.404;2023-06-10T16:08:44;0.47;;;0.20;;
77738;SDS011;66904;59.926;30.404;2023-06-10T16:13:45;0.17;;;0.10;;
77738;SDS011;66904;59.926;30.404;2023-06-10T16:18:46;0.28;;;0.10;;
77738;SDS011;66904;59.926;30.404;2023-06-10T16:23:46;0.10;;;0.10;;
77738;SDS011;66904;59.926;30.404;2023-06-10T16:28:47;2.60;;;0.22;;
77738;SDS011;66904;59.926;30.404;2023-06-10T16:33:48;0.50;;;0.22;;
77738;SDS011;66904;59.926;30.404;2023-06-10T16:38:48;0.22;;;0.10;;
77738;SDS011;66904;59.926;30.404;2023-06-10T16:43:49;0.50;;;0.30;;
77738;SDS011;66904;59.926;30.404;2023-06-10T16:48:49;0.32;;;0.13;;
77738;SDS011;66904;59.926;30.404;2023-06-10T16:53:50;0.73;;;0.30;;
77738;SDS011;66904;59.926;30.404;2023-06-10T16:58:52;0.40;;;0.10;;
77738;SDS011;66904;59.926;30.404;2023-06-10T17:03:52;0.20;;;0.10;;
77738;SDS011;66904;59.926;30.404;2023-06-10T17:08:53;0.40;;;0.20;;
77738;SDS011;66904;59.926;30.404;2023-06-10T17:13:53;0.35;;;0.17;;
77738;SDS011;66904;59.926;30.404;2023-06-10T17:18:54;0.05;;;0.00;;
77738;SDS011;66904;59.926;30.404;2023-06-10T17:23:55;0.28;;;0.10;;
77738;SDS011;66904;59.926;30.404;2023-06-10T17:28:55;0.22;;;0.13;;
77738;SDS011;66904;59.926;30.404;2023-06-10T17:33:56;0.32;;;0.20;;
77738;SDS011;66904;59.926;30.404;2023-06-10T17:38:56;0.13;;;0.10;;
77738;SDS011;66904;59.926;30.404;2023-06-10T17:43:57;0.20;;;0.10;;
77738;SDS011;66904;59.926;30.404;2023-06-10T17:48:57;0.43;;;0.20;;
77738;SDS011;66904;59.926;30.404;2023-06-10T17:53:58;0.10;;;0.03;;
77738;SDS011;66904;59.926;30.404;2023-06-10T17:58:58;0.70;;;0.27;;
77738;SDS011;66904;59.926;30.404;2023-06-10T18:04:02;0.10;;;0.05;;
77738;SDS011;66904;59.926;30.404;2023-06-10T18:09:04;0.22;;;0.10;;
77738;SDS011;66904;59.926;30.404;2023-06-10T18:14:04;0.20;;;0.05;;
77738;SDS011;66904;59.926;30.404;2023-06-10T18:19:05;0.30;;;0.20;;
77738;SDS011;66904;59.926;30.404;2023-06-10T18:24:06;0.45;;;0.22;;
77738;SDS011;66904;59.926;30.404;2023-06-10T18:29:07;0.20;;;0.10;;
77738;SDS011;66904;59.926;30.404;2023-06-10T18:34:07;1.05;;;0.20;;
77738;SDS011;66904;59.926;30.404;2023-06-10T18:39:08;1.10;;;0.20;;
77738;SDS011;66904;59.926;30.404;2023-06-10T18:44:08;0.22;;;0.10;;
77738;SDS011;66904;59.926;30.404;2023-06-10T18:49:10;0.73;;;0.30;;
77738;SDS011;66904;59.926;30.404;2023-06-10T18:54:10;0.32;;;0.15;;
77738;SDS011;66904;59.926;30.404;2023-06-10T18:59:11;0.30;;;0.10;;
77738;SDS011;66904;59.926;30.404;2023-06-10T19:04:11;1.05;;;0.20;;
77738;SDS011;66904;59.926;30.404;2023-06-10T19:09:12;1.10;;;0.50;;
77738;SDS011;66904;59.926;30.404;2023-06-10T19:14:12;1.95;;;0.20;;
77738;SDS011;66904;59.926;30.404;2023-06-10T19:19:13;0.55;;;0.20;;
77738;SDS011;66904;59.926;30.404;2023-06-10T19:24:14;0.50;;;0.20;;
77738;SDS011;66904;59.926;30.404;2023-06-10T19:29:14;1.70;;;0.25;;
77738;SDS011;66904;59.926;30.404;2023-06-10T19:34:15;0.45;;;0.10;;
77738;SDS011;66904;59.926;30.404;2023-06-10T19:39:15;0.50;;;0.30;;
77738;SDS011;66904;59.926;30.404;2023-06-10T19:44:16;0.68;;;0.43;;
77738;SDS011;66904;59.926;30.404;2023-06-10T19:49:16;0.50;;;0.20;;
77738;SDS011;66904;59.926;30.404;2023-06-10T19:54:17;0.65;;;0.20;;
77738;SDS011;66904;59.926;30.404;2023-06-10T19:59:18;0.43;;;0.22;;
77738;SDS011;66904;59.926;30.404;2023-06-10T20:04:18;0.77;;;0.30;;
77738;SDS011;66904;59.926;30.404;2023-06-10T20:09:19;1.77;;;0.70;;
77738;SDS011;66904;59.926;30.404;2023-06-10T20:14:20;0.95;;;0.30;;
77738;SDS011;66904;59.926;30.404;2023-06-10T20:19:20;2.00;;;0.40;;
77738;SDS011;66904;59.926;30.404;2023-06-10T20:24:21;0.63;;;0.30;;
77738;SDS011;66904;59.926;30.404;2023-06-10T20:29:22;0.82;;;0.30;;
77738;SDS011;66904;59.926;30.404;2023-06-10T20:34:22;0.68;;;0.20;;
77738;SDS011;66904;59.926;30.404;2023-06-10T20:39:24;0.73;;;0.30;;
77738;SDS011;66904;59.926;30.404;2023-06-10T20:44:25;0.38;;;0.20;;
77738;SDS011;66904;59.926;30.404;2023-06-10T20:49:25;0.93;;;0.30;;
77738;SDS011;66904;59.926;30.404;2023-06-10T20:54:26;0.57;;;0.28;;
77738;SDS011;66904;59.926;30.404;2023-06-10T20:59:26;0.63;;;0.32;;
77738;SDS011;66904;59.926;30.404;2023-06-10T21:04:27;0.68;;;0.30;;
77738;SDS011;66904;59.926;30.404;2023-06-10T21:09:27;1.10;;;0.45;;
77738;SDS011;66904;59.926;30.404;2023-06-10T21:14:28;1.70;;;0.75;;
77738;SDS011;66904;59.926;30.404;2023-06-10T21:19:28;0.95;;;0.40;;
77738;SDS011;66904;59.926;30.404;2023-06-10T21:24:29;1.02;;;0.47;;
77738;SDS011;66904;59.926;30.404;2023-06-10T21:29:29;1.08;;;0.40;;
77738;SDS011;66904;59.926;30.404;2023-06-10T21:34:30;3.13;;;0.67;;
77738;SDS011;66904;59.926;30.404;2023-06-10T21:39:30;1.88;;;0.63;;
77738;SDS011;66904;59.926;30.404;2023-06-10T21:44:31;3.10;;;1.23;;
77738;SDS011;66904;59.926;30.404;2023-06-10T21:49:31;2.63;;;0.83;;
77738;SDS011;66904;59.926;30.404;2023-06-10T21:54:32;2.42;;;0.60;;
77738;SDS011;66904;59.926;30.404;2023-06-10T21:59:32;1.88;;;0.63;;
77738;SDS011;66904;59.926;30.404;2023-06-10T22:04:35;1.63;;;0.57;;
77738;SDS011;66904;59.926;30.404;2023-06-10T22:09:36;1.10;;;0.45;;
77738;SDS011;66904;59.926;30.404;2023-06-10T22:14:38;1.08;;;0.50;;
77738;SDS011;66904;59.926;30.404;2023-06-10T22:19:39;1.20;;;0.50;;
77738;SDS011;66904;59.926;30.404;2023-06-10T22:24:41;1.92;;;0.88;;
77738;SDS011;66904;59.926;30.404;2023-06-10T22:29:42;1.30;;;0.55;;
77738;SDS011;66904;59.926;30.404;2023-06-10T22:34:42;1.10;;;0.57;;
77738;SDS011;66904;59.926;30.404;2023-06-10T22:39:43;2.83;;;0.80;;
77738;SDS011;66904;59.926;30.404;2023-06-10T22:44:44;2.75;;;0.50;;
77738;SDS011;66904;59.926;30.404;2023-06-10T22:49:44;2.03;;;0.80;;
77738;SDS011;66904;59.926;30.404;2023-06-10T22:54:45;1.48;;;0.65;;
77738;SDS011;66904;59.926;30.404;2023-06-10T22:59:45;1.98;;;0.90;;
77738;SDS011;66904;59.926;30.404;2023-06-10T23:04:46;1.98;;;0.75;;
77738;SDS011;66904;59.926;30.404;2023-06-10T23:09:47;1.63;;;0.82;;
77738;SDS011;66904;59.926;30.404;2023-06-10T23:14:49;2.67;;;0.70;;
77738;SDS011;66904;59.926;30.404;2023-06-10T23:19:50;1.50;;;0.70;;
77738;SDS011;66904;59.926;30.404;2023-06-10T23:24:50;1.27;;;0.50;;
77738;SDS011;66904;59.926;30.404;2023-06-10T23:29:51;1.45;;;0.60;;
77738;SDS011;66904;59.926;30.404;2023-06-10T23:34:51;1.42;;;0.60;;
77738;SDS011;66904;59.926;30.404;2023-06-10T23:39:52;1.08;;;0.52;;
77738;SDS011;66904;59.926;30.404;2023-06-10T23:44:54;1.77;;;0.80;;
77738;SDS011;66904;59.926;30.404;2023-06-10T23:49:54;1.05;;;0.75;;
77738;SDS011;66904;59.926;30.404;2023-06-10T23:54:55;1.75;;;0.80;;
77738;SDS011;66904;59.926;30.404;2023-06-10T23:59:56;1.42;;;0.65;;
